createdAt,value
2023-01-19T00:01:29.517Z,10.52
2023-01-19T00:03:57.883Z,10.50
2023-01-19T00:06:26.315Z,10.48
2023-01-19T00:08:54.888Z,10.46
2023-01-19T00:11:23.822Z,10.45
2023-01-19T00:13:52.010Z,10.44
2023-01-19T00:16:21.841Z,10.45
2023-01-19T00:18:51.919Z,10.44
2023-01-19T00:21:21.310Z,10.43
2023-01-19T00:23:49.623Z,10.42
2023-01-19T00:26:18.495Z,10.41
2023-01-19T00:28:46.621Z,10.39
2023-01-19T00:31:15.473Z,10.38
2023-01-19T00:33:44.052Z,10.35
2023-01-19T00:36:12.339Z,10.34
2023-01-19T00:38:40.612Z,10.32
2023-01-19T00:41:08.858Z,10.30
2023-01-19T00:43:37.052Z,10.28
2023-01-19T00:46:05.385Z,10.26
2023-01-19T00:48:33.866Z,10.24
2023-01-19T00:51:02.019Z,10.23
2023-01-19T00:53:30.333Z,10.21
2023-01-19T00:55:59.265Z,10.18
2023-01-19T00:58:27.394Z,10.16
2023-01-19T01:00:55.651Z,10.15
2023-01-19T01:03:24.002Z,10.12
2023-01-19T01:05:52.140Z,10.09
2023-01-19T01:08:20.281Z,10.06
2023-01-19T01:10:48.550Z,10.05
2023-01-19T01:13:21.301Z,10.02
2023-01-19T01:15:55.570Z,9.98
2023-01-19T01:18:24.465Z,9.93
2023-01-19T01:20:55.248Z,9.90
2023-01-19T01:23:24.738Z,9.87
2023-01-19T01:25:53.383Z,9.86
2023-01-19T01:28:21.596Z,9.83
2023-01-19T01:30:54.903Z,9.80
2023-01-19T01:33:40.884Z,9.79
2023-01-19T01:36:11.961Z,9.75
2023-01-19T01:38:41.399Z,9.72
2023-01-19T01:41:09.968Z,9.69
2023-01-19T01:43:48.606Z,9.65
2023-01-19T01:46:18.234Z,9.61
2023-01-19T01:48:57.451Z,9.58
2023-01-19T01:51:37.464Z,9.56
2023-01-19T01:54:18.390Z,9.54
2023-01-19T01:56:55.854Z,9.52
2023-01-19T01:59:31.234Z,9.49
2023-01-19T02:02:05.042Z,9.46
2023-01-19T02:04:33.591Z,9.43
2023-01-19T02:07:02.328Z,9.41
2023-01-19T02:09:33.674Z,9.39
2023-01-19T02:12:01.859Z,9.37
2023-01-19T02:14:29.986Z,9.34
2023-01-19T02:16:58.452Z,9.32
2023-01-19T02:19:33.160Z,9.29
2023-01-19T02:22:20.515Z,9.27
2023-01-19T02:24:49.621Z,9.27
2023-01-19T02:27:18.374Z,9.26
2023-01-19T02:29:46.746Z,9.25
2023-01-19T02:32:16.317Z,9.23
2023-01-19T02:34:44.505Z,9.21
2023-01-19T02:37:16.350Z,9.20
2023-01-19T02:39:54.899Z,9.17
2023-01-19T02:42:34.173Z,9.15
2023-01-19T02:45:04.992Z,9.13
2023-01-19T02:47:44.750Z,9.11
2023-01-19T02:50:37.918Z,9.08
2023-01-19T02:53:19.025Z,9.06
2023-01-19T02:55:55.488Z,9.04
2023-01-19T02:58:34.094Z,9.02
2023-01-19T03:01:47.447Z,9.01
2023-01-19T03:04:31.470Z,8.98
2023-01-19T03:07:09.468Z,8.96
2023-01-19T03:09:50.177Z,8.92
2023-01-19T03:12:31.295Z,8.89
2023-01-19T03:15:05.360Z,8.87
2023-01-19T03:17:36.183Z,8.84
2023-01-19T03:20:08.996Z,8.82
2023-01-19T03:22:37.069Z,8.79
2023-01-19T03:25:06.925Z,8.77
2023-01-19T03:27:40.168Z,8.75
2023-01-19T03:30:16.092Z,8.74
2023-01-19T03:33:03.598Z,8.72
2023-01-19T03:35:35.748Z,8.71
2023-01-19T03:38:07.853Z,8.73
2023-01-19T03:40:36.829Z,8.73
2023-01-19T03:43:06.501Z,8.73
2023-01-19T03:45:38.595Z,8.72
2023-01-19T03:48:07.954Z,8.71
2023-01-19T03:50:36.247Z,8.71
2023-01-19T03:53:14.611Z,8.69
2023-01-19T03:55:46.667Z,8.67
2023-01-19T03:58:18.238Z,8.66
2023-01-19T04:00:46.365Z,8.65
2023-01-19T04:03:16.798Z,8.64
2023-01-19T04:05:46.046Z,8.63
2023-01-19T04:08:14.243Z,8.63
2023-01-19T04:10:42.548Z,8.64
2023-01-19T04:13:11.152Z,8.63
2023-01-19T04:15:39.673Z,8.62
2023-01-19T04:18:09.136Z,8.61
2023-01-19T04:20:37.972Z,8.60
2023-01-19T04:23:06.174Z,8.59
2023-01-19T04:25:34.339Z,8.57
2023-01-19T04:28:02.789Z,8.57
2023-01-19T04:30:30.960Z,8.57
2023-01-19T04:33:00.102Z,8.57
2023-01-19T04:35:28.773Z,8.58
2023-01-19T04:37:57.179Z,8.59
2023-01-19T04:40:25.324Z,8.61
2023-01-19T04:42:56.108Z,8.62
2023-01-19T04:45:24.397Z,8.63
2023-01-19T04:47:52.728Z,8.64
2023-01-19T04:50:21.148Z,8.64
2023-01-19T04:52:49.313Z,8.64
2023-01-19T04:55:18.133Z,8.66
2023-01-19T04:57:47.941Z,8.67
2023-01-19T05:00:17.465Z,8.67
2023-01-19T05:02:45.738Z,8.67
2023-01-19T05:05:14.318Z,8.68
2023-01-19T05:07:43.747Z,8.72
2023-01-19T05:10:12.811Z,8.74
2023-01-19T05:12:41.134Z,8.75
2023-01-19T05:15:10.116Z,8.74
2023-01-19T05:17:38.492Z,8.74
2023-01-19T05:20:07.999Z,8.69
2023-01-19T05:22:36.249Z,8.68
2023-01-19T05:25:04.692Z,8.68
2023-01-19T05:27:33.095Z,8.70
2023-01-19T05:30:01.576Z,8.72
2023-01-19T05:32:29.829Z,8.73
2023-01-19T05:34:58.116Z,8.72
2023-01-19T05:37:26.482Z,8.73
2023-01-19T05:39:54.774Z,8.76
2023-01-19T05:42:23.051Z,8.80
2023-01-19T05:44:51.445Z,8.82
2023-01-19T05:47:19.666Z,8.83
2023-01-19T05:49:48.374Z,8.84
2023-01-19T05:52:16.689Z,8.83
2023-01-19T05:54:44.945Z,8.81
2023-01-19T05:57:13.300Z,8.82
2023-01-19T05:59:41.495Z,8.82
2023-01-19T06:02:09.616Z,8.84
2023-01-19T06:04:37.886Z,8.88
2023-01-19T06:07:06.667Z,8.91
2023-01-19T06:09:34.897Z,8.94
2023-01-19T06:12:03.946Z,8.94
2023-01-19T06:14:32.072Z,8.95
2023-01-19T06:17:00.624Z,8.97
2023-01-19T06:19:29.244Z,8.98
2023-01-19T06:21:57.441Z,8.97
2023-01-19T06:24:25.651Z,8.94
2023-01-19T06:26:53.957Z,8.94
2023-01-19T06:29:22.268Z,8.91
2023-01-19T06:31:51.022Z,8.89
2023-01-19T06:34:20.431Z,8.86
2023-01-19T06:36:48.625Z,8.82
2023-01-19T06:39:17.070Z,8.80
2023-01-19T06:41:45.337Z,8.79
2023-01-19T06:44:13.723Z,8.78
2023-01-19T06:46:41.917Z,8.78
2023-01-19T06:49:10.345Z,8.80
2023-01-19T06:51:38.763Z,8.80
2023-01-19T06:54:06.907Z,8.80
2023-01-19T06:56:35.190Z,8.81
2023-01-19T06:59:03.567Z,8.80
2023-01-19T07:01:32.418Z,8.79
2023-01-19T07:04:01.122Z,8.77
2023-01-19T07:06:29.433Z,8.76
2023-01-19T07:08:58.020Z,8.77
2023-01-19T07:11:33.006Z,8.79
2023-01-19T07:14:01.733Z,8.80
2023-01-19T07:16:30.122Z,8.83
2023-01-19T07:18:58.340Z,8.85
2023-01-19T07:21:29.096Z,8.87
2023-01-19T07:23:57.609Z,8.90
2023-01-19T07:26:25.854Z,8.94
2023-01-19T07:28:54.204Z,8.97
2023-01-19T07:31:23.017Z,9.00
2023-01-19T07:33:51.329Z,9.01
2023-01-19T07:36:19.508Z,9.04
2023-01-19T07:38:47.894Z,9.06
2023-01-19T07:41:16.258Z,9.08
2023-01-19T07:43:44.509Z,9.10
2023-01-19T07:46:13.235Z,9.11
2023-01-19T07:48:41.491Z,9.16
2023-01-19T07:51:12.740Z,9.65
2023-01-19T07:53:41.565Z,10.85
2023-01-19T07:56:11.152Z,12.33
2023-01-19T07:58:40.073Z,13.79
2023-01-19T08:01:10.361Z,15.05
2023-01-19T08:03:39.409Z,15.98
2023-01-19T08:06:20.299Z,16.41
2023-01-19T08:08:48.605Z,16.34
2023-01-19T08:11:17.846Z,16.37
2023-01-19T08:13:46.762Z,16.85
2023-01-19T08:16:15.030Z,17.67
2023-01-19T08:18:44.034Z,18.64
2023-01-19T08:21:12.386Z,19.56
2023-01-19T08:23:40.752Z,20.36
2023-01-19T08:26:27.306Z,20.79
2023-01-19T08:28:58.172Z,20.55
2023-01-19T08:31:27.403Z,20.15
2023-01-19T08:33:55.819Z,20.28
2023-01-19T08:36:24.099Z,20.91
2023-01-19T08:38:53.395Z,21.70
2023-01-19T08:41:21.854Z,22.49
2023-01-19T08:43:50.456Z,23.14
2023-01-19T08:46:19.387Z,23.87
2023-01-19T08:48:47.977Z,24.58
2023-01-19T08:51:17.144Z,25.04
2023-01-19T08:53:45.912Z,25.19
2023-01-19T08:56:14.447Z,25.48
2023-01-19T08:58:45.704Z,26.03
2023-01-19T09:01:15.007Z,26.73
2023-01-19T09:03:44.429Z,27.55
2023-01-19T09:06:16.025Z,28.35
2023-01-19T09:08:44.547Z,29.00
2023-01-19T09:11:14.881Z,29.55
2023-01-19T09:13:43.663Z,30.02
2023-01-19T09:16:12.093Z,30.51
2023-01-19T09:18:40.521Z,30.88
2023-01-19T09:21:10.200Z,31.08
2023-01-19T09:23:38.514Z,31.35
2023-01-19T09:26:06.782Z,31.62
2023-01-19T09:28:35.111Z,31.75
2023-01-19T09:31:08.429Z,31.66
2023-01-19T09:33:37.522Z,31.48
2023-01-19T09:36:06.435Z,31.41
2023-01-19T09:38:35.291Z,31.56
2023-01-19T09:41:03.667Z,31.65
2023-01-19T09:43:43.898Z,31.55
2023-01-19T09:46:27.904Z,31.48
2023-01-19T09:49:03.353Z,31.32
2023-01-19T09:51:38.478Z,31.15
2023-01-19T09:54:23.387Z,31.07
2023-01-19T09:56:53.735Z,30.82
2023-01-19T09:59:25.345Z,30.49
2023-01-19T10:02:23.050Z,29.87
2023-01-19T10:05:02.921Z,29.00
2023-01-19T10:07:59.717Z,28.36
2023-01-19T10:10:31.657Z,28.14
2023-01-19T10:13:22.542Z,28.31
2023-01-19T10:16:21.165Z,28.73
2023-01-19T10:18:53.064Z,29.36
2023-01-19T10:21:39.375Z,29.84
2023-01-19T10:24:29.634Z,30.29
2023-01-19T10:26:58.005Z,30.70
2023-01-19T10:29:33.854Z,31.00
2023-01-19T10:32:07.415Z,31.28
2023-01-19T10:34:36.587Z,31.44
2023-01-19T10:37:22.106Z,31.65
2023-01-19T10:39:57.490Z,31.48
2023-01-19T10:42:29.874Z,31.30
2023-01-19T10:44:58.817Z,31.11
2023-01-19T10:47:34.794Z,31.10
2023-01-19T10:50:24.909Z,31.44
2023-01-19T10:53:36.178Z,31.77
2023-01-19T10:56:23.626Z,31.96
2023-01-19T10:58:52.436Z,32.16
2023-01-19T11:01:26.957Z,32.32
2023-01-19T11:03:56.095Z,32.44
2023-01-19T11:06:28.152Z,32.72
2023-01-19T11:09:21.358Z,32.96
2023-01-19T11:11:52.503Z,32.90
2023-01-19T11:14:24.660Z,32.74
2023-01-19T11:16:58.373Z,32.52
2023-01-19T11:19:28.194Z,32.22
2023-01-19T11:22:25.842Z,31.93
2023-01-19T11:24:58.849Z,31.89
2023-01-19T11:27:28.320Z,32.01
2023-01-19T11:30:24.506Z,32.07
2023-01-19T11:32:56.445Z,32.11
2023-01-19T11:35:35.443Z,32.01
2023-01-19T11:38:13.772Z,32.04
2023-01-19T11:40:47.566Z,32.05
2023-01-19T11:43:16.883Z,32.15
2023-01-19T11:45:46.286Z,32.15
2023-01-19T11:48:27.732Z,32.00
2023-01-19T11:51:01.251Z,31.69
2023-01-19T11:53:34.114Z,31.52
2023-01-19T11:56:15.237Z,31.25
2023-01-19T11:58:45.368Z,31.08
2023-01-19T12:01:22.446Z,30.95
2023-01-19T12:04:05.639Z,30.68
2023-01-19T12:06:39.637Z,30.01
2023-01-19T12:09:14.065Z,28.98
2023-01-19T12:11:49.187Z,27.84
2023-01-19T12:14:23.347Z,26.97
2023-01-19T12:16:55.409Z,26.21
2023-01-19T12:19:43.366Z,25.47
2023-01-19T12:22:17.901Z,24.74
2023-01-19T12:25:01.184Z,24.12
2023-01-19T12:27:43.832Z,23.55
2023-01-19T12:30:32.681Z,23.08
2023-01-19T12:33:35.409Z,22.66
2023-01-19T12:36:27.001Z,22.17
2023-01-19T12:39:22.733Z,21.72
2023-01-19T12:42:16.236Z,21.35
2023-01-19T12:44:49.252Z,21.10
2023-01-19T12:47:24.142Z,20.92
2023-01-19T12:49:56.826Z,20.71
2023-01-19T12:52:48.906Z,20.53
2023-01-19T12:55:31.648Z,20.28
2023-01-19T12:58:13.973Z,20.12
2023-01-19T13:00:44.959Z,20.00
2023-01-19T13:03:25.759Z,19.89
2023-01-19T13:05:55.915Z,19.85
2023-01-19T13:08:49.698Z,19.79
2023-01-19T13:11:20.119Z,19.72
2023-01-19T13:14:18.038Z,19.67
2023-01-19T13:16:57.806Z,19.60
2023-01-19T13:19:37.401Z,19.57
2023-01-19T13:22:43.355Z,19.59
2023-01-19T13:25:21.668Z,19.57
2023-01-19T13:27:50.341Z,19.51
2023-01-19T13:30:22.428Z,19.45
2023-01-19T13:32:51.621Z,19.41
2023-01-19T13:35:21.172Z,19.33
2023-01-19T13:37:51.502Z,19.28
2023-01-19T13:40:26.467Z,19.28
2023-01-19T13:42:55.087Z,19.30
2023-01-19T13:45:31.835Z,19.31
2023-01-19T13:48:03.124Z,19.34
2023-01-19T13:50:34.219Z,19.37
2023-01-19T13:53:02.623Z,19.36
2023-01-19T13:55:32.083Z,19.34
2023-01-19T13:58:00.662Z,19.29
2023-01-19T14:00:30.403Z,19.29
2023-01-19T14:03:14.123Z,19.27
2023-01-19T14:05:44.282Z,19.24
2023-01-19T14:08:14.720Z,19.20
2023-01-19T14:10:48.125Z,19.17
2023-01-19T14:13:23.090Z,19.19
2023-01-19T14:15:56.692Z,19.21
2023-01-19T14:18:28.221Z,19.25
2023-01-19T14:21:06.192Z,19.28
2023-01-19T14:23:48.952Z,19.32
2023-01-19T14:26:52.311Z,19.38
2023-01-19T14:29:34.400Z,19.43
2023-01-19T14:32:18.036Z,19.49
2023-01-19T14:34:51.091Z,19.54
2023-01-19T14:37:32.933Z,19.52
2023-01-19T14:40:16.999Z,19.47
2023-01-19T14:42:59.906Z,19.43
2023-01-19T14:45:34.318Z,19.38
2023-01-19T14:48:19.651Z,19.33
2023-01-19T14:51:02.508Z,19.27
2023-01-19T14:53:37.591Z,19.22
2023-01-19T14:56:07.105Z,19.21
2023-01-19T14:58:36.107Z,19.20
2023-01-19T15:01:05.733Z,19.13
2023-01-19T15:03:44.418Z,19.07
2023-01-19T15:06:19.092Z,19.04
2023-01-19T15:08:48.179Z,19.01
2023-01-19T15:11:26.055Z,19.03
2023-01-19T15:13:54.715Z,19.06
2023-01-19T15:16:28.199Z,19.08
2023-01-19T15:18:56.932Z,19.01
2023-01-19T15:21:25.156Z,18.92
2023-01-19T15:23:55.111Z,18.88
2023-01-19T15:26:25.554Z,18.85
2023-01-19T15:28:56.512Z,18.81
2023-01-19T15:31:27.754Z,18.78
2023-01-19T15:33:57.406Z,18.78
2023-01-19T15:36:27.430Z,18.74
2023-01-19T15:38:56.325Z,18.71
2023-01-19T15:41:29.522Z,18.71
2023-01-19T15:44:01.469Z,18.72
2023-01-19T15:46:29.912Z,18.72
2023-01-19T15:48:59.255Z,18.69
2023-01-19T15:51:28.218Z,18.63
2023-01-19T15:53:57.937Z,18.60
2023-01-19T15:56:29.166Z,18.58
2023-01-19T15:58:58.935Z,18.58
2023-01-19T16:01:29.526Z,18.53
2023-01-19T16:04:05.567Z,18.46
2023-01-19T16:06:35.142Z,18.36
2023-01-19T16:09:03.856Z,18.28
2023-01-19T16:11:34.221Z,18.21
2023-01-19T16:14:02.766Z,18.14
2023-01-19T16:16:31.222Z,18.07
2023-01-19T16:18:59.719Z,17.99
2023-01-19T16:21:28.636Z,17.90
2023-01-19T16:23:57.157Z,17.82
2023-01-19T16:26:34.100Z,17.75
2023-01-19T16:29:06.002Z,17.61
2023-01-19T16:31:38.877Z,17.39
2023-01-19T16:34:08.854Z,17.21
2023-01-19T16:36:41.018Z,17.08
2023-01-19T16:39:15.115Z,16.97
2023-01-19T16:41:48.448Z,16.88
2023-01-19T16:44:20.546Z,16.76
2023-01-19T16:46:49.145Z,16.64
2023-01-19T16:49:22.241Z,16.50
2023-01-19T16:51:51.909Z,16.34
2023-01-19T16:54:22.487Z,16.15
2023-01-19T16:56:51.129Z,15.97
2023-01-19T16:59:21.203Z,15.83
2023-01-19T17:01:50.959Z,15.69
2023-01-19T17:04:21.603Z,15.57
2023-01-19T17:06:50.003Z,15.47
2023-01-19T17:09:20.112Z,15.39
2023-01-19T17:11:48.438Z,15.32
2023-01-19T17:14:20.857Z,15.25
2023-01-19T17:16:50.414Z,15.19
2023-01-19T17:19:20.424Z,15.14
2023-01-19T17:21:49.491Z,15.09
2023-01-19T17:24:18.613Z,15.04
2023-01-19T17:26:47.538Z,15.01
2023-01-19T17:29:16.442Z,14.97
2023-01-19T17:31:45.423Z,14.93
2023-01-19T17:34:16.038Z,14.89
2023-01-19T17:36:44.767Z,14.85
2023-01-19T17:39:14.314Z,14.82
2023-01-19T17:41:42.880Z,14.77
2023-01-19T17:44:11.520Z,14.74
2023-01-19T17:46:40.256Z,14.71
2023-01-19T17:49:08.769Z,14.69
2023-01-19T17:51:37.466Z,14.67
2023-01-19T17:54:06.173Z,14.64
2023-01-19T17:56:35.394Z,14.61
2023-01-19T17:59:05.071Z,14.58
2023-01-19T18:01:37.619Z,14.55
2023-01-19T18:04:08.109Z,14.51
2023-01-19T18:06:37.241Z,14.48
2023-01-19T18:09:06.494Z,14.44
2023-01-19T18:11:36.158Z,14.40
2023-01-19T18:14:05.831Z,14.36
2023-01-19T18:16:34.910Z,14.33
2023-01-19T18:19:03.422Z,14.30
2023-01-19T18:21:31.845Z,14.29
2023-01-19T18:24:02.552Z,14.28
2023-01-19T18:26:32.527Z,14.27
2023-01-19T18:29:01.373Z,14.25
2023-01-19T18:31:29.854Z,14.23
2023-01-19T18:33:58.818Z,14.21
2023-01-19T18:36:27.429Z,14.20
2023-01-19T18:38:55.746Z,14.18
2023-01-19T18:41:24.317Z,14.18
2023-01-19T18:43:56.774Z,14.17
2023-01-19T18:46:26.902Z,14.17
2023-01-19T18:48:55.234Z,14.17
2023-01-19T18:51:23.469Z,14.16
2023-01-19T18:53:52.099Z,14.16
2023-01-19T18:56:20.368Z,14.14
2023-01-19T18:58:48.580Z,14.14
2023-01-19T19:01:20.451Z,14.13
2023-01-19T19:03:48.823Z,14.12
2023-01-19T19:06:18.361Z,14.11
2023-01-19T19:08:55.907Z,14.10
2023-01-19T19:11:25.532Z,14.10
2023-01-19T19:13:56.993Z,14.08
2023-01-19T19:16:25.648Z,14.08
2023-01-19T19:18:54.022Z,14.05
2023-01-19T19:21:23.521Z,14.05
2023-01-19T19:23:54.470Z,14.04
2023-01-19T19:26:25.883Z,14.03
2023-01-19T19:28:55.448Z,14.01
2023-01-19T19:31:27.078Z,14.00
2023-01-19T19:33:57.233Z,13.98
2023-01-19T19:36:28.802Z,13.96
2023-01-19T19:38:59.552Z,13.93
2023-01-19T19:41:28.884Z,13.92
2023-01-19T19:43:57.128Z,13.90
2023-01-19T19:46:26.591Z,13.89
2023-01-19T19:48:56.160Z,13.86
2023-01-19T19:51:27.761Z,13.83
2023-01-19T19:53:58.422Z,13.81
2023-01-19T19:56:30.225Z,13.79
2023-01-19T19:58:59.977Z,13.77
2023-01-19T20:01:32.961Z,13.75
2023-01-19T20:04:10.963Z,13.73
2023-01-19T20:06:41.704Z,13.70
2023-01-19T20:09:12.452Z,13.70
2023-01-19T20:11:42.201Z,13.68
2023-01-19T20:14:13.276Z,13.67
2023-01-19T20:16:42.934Z,13.65
2023-01-19T20:19:11.916Z,13.63
2023-01-19T20:21:42.081Z,13.62
2023-01-19T20:24:17.617Z,13.61
2023-01-19T20:26:50.015Z,13.60
2023-01-19T20:29:20.177Z,13.59
2023-01-19T20:31:53.522Z,13.57
2023-01-19T20:34:26.472Z,13.55
2023-01-19T20:36:55.647Z,13.54
2023-01-19T20:39:24.674Z,13.52
2023-01-19T20:41:53.804Z,13.49
2023-01-19T20:44:25.612Z,13.44
2023-01-19T20:46:54.951Z,13.40
2023-01-19T20:49:23.687Z,13.37
2023-01-19T20:51:52.281Z,13.34
2023-01-19T20:54:24.495Z,13.33
2023-01-19T20:56:52.997Z,13.32
2023-01-19T20:59:21.670Z,13.30
2023-01-19T21:01:50.689Z,13.29
2023-01-19T21:04:19.331Z,13.27
2023-01-19T21:06:47.659Z,13.26
2023-01-19T21:09:15.959Z,13.26
2023-01-19T21:11:45.487Z,13.25
2023-01-19T21:14:15.307Z,13.24
2023-01-19T21:16:43.616Z,13.23
2023-01-19T21:19:12.083Z,13.22
2023-01-19T21:21:40.746Z,13.21
2023-01-19T21:24:10.832Z,13.18
2023-01-19T21:26:39.300Z,13.17
2023-01-19T21:29:09.344Z,13.15
2023-01-19T21:31:38.065Z,13.12
2023-01-19T21:34:07.138Z,13.10
2023-01-19T21:36:36.260Z,13.08
2023-01-19T21:39:04.476Z,13.07
2023-01-19T21:41:32.727Z,13.05
2023-01-19T21:44:01.787Z,13.03
2023-01-19T21:46:30.577Z,13.00
2023-01-19T21:49:01.327Z,12.98
2023-01-19T21:51:32.287Z,12.96
2023-01-19T21:54:05.199Z,12.93
2023-01-19T21:56:34.912Z,12.92
2023-01-19T21:59:03.185Z,12.89
2023-01-19T22:01:33.489Z,12.86
2023-01-19T22:04:02.601Z,12.83
2023-01-19T22:06:30.932Z,12.81
2023-01-19T22:08:59.484Z,12.79
2023-01-19T22:11:29.005Z,12.77
2023-01-19T22:13:57.608Z,12.76
2023-01-19T22:16:28.434Z,12.74
2023-01-19T22:19:01.564Z,12.73
2023-01-19T22:21:34.174Z,12.71
2023-01-19T22:24:04.553Z,12.68
2023-01-19T22:26:33.708Z,12.67
2023-01-19T22:29:03.838Z,12.65
2023-01-19T22:31:32.722Z,12.65
2023-01-19T22:34:01.055Z,12.63
2023-01-19T22:36:31.590Z,12.63
2023-01-19T22:39:11.041Z,12.63
2023-01-19T22:41:41.754Z,12.63
2023-01-19T22:44:19.052Z,12.63
2023-01-19T22:46:48.778Z,12.63
2023-01-19T22:49:18.516Z,12.64
2023-01-19T22:51:47.704Z,12.66
2023-01-19T22:54:15.959Z,12.66
2023-01-19T22:56:44.254Z,12.66
2023-01-19T22:59:12.671Z,12.67
2023-01-19T23:01:42.799Z,12.66
2023-01-19T23:04:14.504Z,12.66
2023-01-19T23:06:43.390Z,12.66
2023-01-19T23:09:14.317Z,12.66
2023-01-19T23:11:45.756Z,12.65
2023-01-19T23:14:17.197Z,12.66
2023-01-19T23:16:45.998Z,12.67
2023-01-19T23:19:14.709Z,12.68
2023-01-19T23:21:43.878Z,12.68
2023-01-19T23:24:13.080Z,12.67
2023-01-19T23:26:41.483Z,12.67
2023-01-19T23:29:15.075Z,12.67
2023-01-19T23:31:46.884Z,12.67
2023-01-19T23:34:15.497Z,12.67
2023-01-19T23:36:44.939Z,12.67
2023-01-19T23:39:21.899Z,12.69
2023-01-19T23:41:50.136Z,12.72
2023-01-19T23:44:18.744Z,12.73
2023-01-19T23:46:47.821Z,12.73
2023-01-19T23:49:16.537Z,12.74
2023-01-19T23:51:44.807Z,12.74
2023-01-19T23:54:14.075Z,12.75
2023-01-19T23:56:42.525Z,12.75
2023-01-19T23:59:13.363Z,12.74
